Latest Weather Observations for Mount Ginini

IDN60901

Issued at 11:01 am EDT Thursday 1 December 2022 (issued every 10 minutes, with the page automatically refreshed every 10 minutes)

About weather observations | Map of Canberra area stations | Latest observations for Canberra area | Other Formats
Station Details ID: 070349 Name: MOUNT GININI AWS Lat: -35.53 Lon: 148.77 Height: 1760.0 m
Data from the previous 72 hours. | See also: Recent months at Mount Ginini
Date/Time
EDT
Temp
°C
App
Temp
°C
Dew
Point
°C
Rel
Hum
%
Delta-T
°C
Wind Press
QNH
hPa
Press
MSL
hPa
Rain since
9am
mm
Dir  Spd
km/h
Gust
km/h
Spd
kts
Gust
kts
01/11:00am 7.5 - - - - SE 6 15 3 8 - - 0.0
01/10:30am 7.2 - - - - ESE 9 17 5 9 - - 0.0
01/10:00am 7.1 - - - - ESE 9 17 5 9 - - 0.0
01/09:30am 6.6 - - - - ESE 11 19 6 10 - - 0.0
01/09:00am 6.4 - - - - ESE 9 17 5 9 - - 0.0
01/08:30am 6.2 - - - - ESE 9 20 5 11 - - 0.0
01/08:00am 6.7 - - - - ESE 9 15 5 8 - - 0.0
01/07:30am 6.4 - - - - ESE 6 11 3 6 - - 0.0
01/07:00am 5.6 - - - - SE 9 15 5 8 - - 0.0
01/06:30am 5.6 - - - - SE 6 13 3 7 - - 0.0
01/06:00am 5.1 - - - - SE 6 13 3 7 - - 0.0
01/05:30am 5.0 - - - - ESE 9 15 5 8 - - 0.0
01/05:00am 4.9 - - - - ESE 13 19 7 10 - - 0.0
01/04:30am 5.2 - - - - ESE 11 15 6 8 - - 0.0
01/04:00am 5.9 - - - - ESE 11 15 6 8 - - 0.0
01/03:30am 5.8 - - - - E 11 15 6 8 - - 0.0
01/03:00am 6.0 - - - - E 9 17 5 9 - - 0.0
01/02:30am 6.4 - - - - E 11 17 6 9 - - 0.0
01/02:00am 5.7 - - - - E 9 15 5 8 - - 0.0
01/01:30am 6.3 - - - - E 7 11 4 6 - - 0.0
01/01:00am 6.3 - - - - E 9 15 5 8 - - 0.0
01/12:30am 6.6 - - - - ENE 11 17 6 9 - - 0.0
01/12:00am 6.6 - - - - ENE 11 17 6 9 - - 0.0
 
Date/Time
EDT
Temp
°C
App
Temp
°C
Dew
Point
°C
Rel
Hum
%
Delta-T
°C
Wind Press
QNH
hPa
Press
MSL
hPa
Rain since
9am
mm
Dir  Spd
km/h
Gust
km/h
Spd
kts
Gust
kts
30/11:30pm 6.4 - - - - ENE 11 17 6 9 - - 0.0
30/11:00pm 6.7 - - - - ENE 11 20 6 11 - - 0.0
30/10:30pm 7.9 - - - - ENE 9 19 5 10 - - 0.0
30/10:00pm 7.9 - - - - ENE 9 17 5 9 - - 0.0
30/09:30pm 8.0 - - - - ENE 9 17 5 9 - - 0.0
30/09:00pm 8.0 - - - - ENE 9 17 5 9 - - 0.0
30/08:30pm 8.3 - - - - ENE 11 20 6 11 - - 0.0
30/08:00pm 8.7 - - - - ENE 11 19 6 10 - - 0.0
30/07:30pm 9.6 - - - - E 11 26 6 14 - - 0.0
30/07:00pm 10.2 - - - - ENE 11 19 6 10 - - 0.0
30/06:30pm 10.7 - - - - NE 9 17 5 9 - - 0.0
30/06:00pm 11.1 - - - - NE 9 22 5 12 - - 0.0
30/05:30pm 11.0 - - - - NE 13 28 7 15 - - 0.0
30/05:00pm 11.7 - - - - NE 11 20 6 11 - - 0.0
30/04:30pm 11.9 - - - - NE 13 22 7 12 - - 0.0
30/04:00pm 11.7 - - - - NE 11 20 6 11 - - 0.0
30/03:30pm 11.7 - - - - NE 7 20 4 11 - - 0.0
30/03:00pm 12.7 - - - - NNE 7 20 4 11 - - 0.0
30/02:30pm 14.1 - - - - N 7 17 4 9 - - 0.0
30/02:00pm 15.4 - - - - NW 9 20 5 11 - - 0.0
30/01:30pm 14.7 - - - - WNW 9 19 5 10 - - 0.0
30/01:00pm 14.1 - - - - WNW 6 15 3 8 - - 0.0
30/12:30pm 13.1 - - - - NW 7 17 4 9 - - 0.0
30/12:00pm 11.8 - - - - W 9 19 5 10 - - 0.0
30/11:30am 10.6 - - - - WNW 7 13 4 7 - - 0.0
30/11:00am 9.8 - - - - WNW 9 15 5 8 - - 0.0
30/10:30am 9.0 - - - - WNW 6 11 3 6 - - 0.0
30/10:00am 8.5 - - - - W 9 13 5 7 - - 0.0
30/09:30am 7.7 - - - - W 6 13 3 7 - - 0.0
30/09:00am 7.1 - - - - NW 4 9 2 5 - - 0.0
30/08:30am 6.7 - - - - NW 4 9 2 5 - - 0.0
30/08:00am 5.6 - - - - N 6 11 3 6 - - 0.0
30/07:30am 4.6 - - - - NE 7 11 4 6 - - 0.0
30/07:00am 4.0 - - - - NE 6 11 3 6 - - 0.0
30/06:30am 3.9 - - - - ENE 6 11 3 6 - - 0.0
30/06:00am 3.7 - - - - E 9 13 5 7 - - 0.0
30/05:30am 3.8 - - - - ENE 9 17 5 9 - - 0.0
30/05:00am 3.8 - - - - E 9 19 5 10 - - 0.0
30/04:30am 3.8 - - - - E 11 19 6 10 - - 0.0
30/04:00am 3.7 - - - - E 13 20 7 11 - - 0.0
30/03:30am 3.7 - - - - E 15 22 8 12 - - 0.0
30/03:00am 3.9 - - - - ENE 11 19 6 10 - - 0.0
30/02:30am 4.0 - - - - ENE 11 19 6 10 - - 0.0
30/02:00am 4.2 - - - - ENE 13 24 7 13 - - 0.0
30/01:30am 4.4 - - - - ENE 11 19 6 10 - - 0.0
30/01:00am 4.6 - - - - ENE 9 17 5 9 - - 0.0
30/12:30am 4.8 - - - - ENE 9 15 5 8 - - 0.0
30/12:00am 5.1 - - - - ENE 9 17 5 9 - - 0.0
 
Date/Time
EDT
Temp
°C
App
Temp
°C
Dew
Point
°C
Rel
Hum
%
Delta-T
°C
Wind Press
QNH
hPa
Press
MSL
hPa
Rain since
9am
mm
Dir  Spd
km/h
Gust
km/h
Spd
kts
Gust
kts
29/11:30pm 5.3 - - - - ENE 11 17 6 9 - - 0.0
29/11:00pm 5.6 - - - - ENE 9 17 5 9 - - 0.0
29/10:30pm 6.0 - - - - ENE 7 15 4 8 - - 0.0
29/10:00pm 6.5 - - - - ENE 7 15 4 8 - - 0.0
29/09:30pm 7.1 - - - - NE 9 17 5 9 - - 0.0
29/09:00pm 7.3 - - - - NE 7 17 4 9 - - 0.0
29/08:30pm 7.7 - - - - NE 9 17 5 9 - - 0.0
29/08:00pm 9.0 - - - - ENE 7 19 4 10 - - 0.0
29/07:30pm 9.3 - - - - NE 7 11 4 6 - - 0.0
29/07:00pm 9.4 - - - - NE 9 19 5 10 - - 0.0
29/06:30pm 10.7 - - - - NE 11 20 6 11 - - 0.0
29/06:00pm 12.6 - - - - NE 7 22 4 12 - - 0.0
29/05:30pm 14.3 - - - - SW 6 15 3 8 - - 0.0
29/05:00pm 14.8 - - - - SSW 6 17 3 9 - - 0.0
29/04:30pm 14.8 - - - - SW 11 20 6 11 - - 0.0
29/04:00pm 15.0 - - - - WSW 9 19 5 10 - - 0.0
29/03:30pm 14.4 - - - - WSW 13 22 7 12 - - 0.0
29/03:00pm 14.7 - - - - WSW 11 22 6 12 - - 0.0
29/02:30pm 13.1 - - - - WSW 9 19 5 10 - - 0.0
29/02:00pm 12.5 - - - - NW 11 20 6 11 - - 0.0
29/01:30pm 12.8 - - - - NW 7 19 4 10 - - 0.0
29/01:00pm 11.7 - - - - NW 11 22 6 12 - - 0.0
29/12:30pm 11.8 - - - - WSW 13 24 7 13 - - 0.0
29/12:00pm 11.1 - - - - WNW 9 24 5 13 - - 0.0
29/11:30am 10.3 - - - - WNW 11 24 6 13 - - 0.0
29/11:00am 9.6 - - - - W 11 24 6 13 - - 0.0
29/10:30am 8.4 - - - - W 13 30 7 16 - - 0.0
29/10:00am 8.3 - - - - W 17 39 9 21 - - 0.0
29/09:30am 7.4 - - - - W 13 24 7 13 - - 0.0
29/09:00am 5.2 - - - - W 13 26 7 14 - - 0.0
29/08:30am 4.7 - - - - WSW 19 35 10 19 - - 0.0
29/08:00am 3.7 - - - - WSW 20 39 11 21 - - 0.0
29/07:30am 3.2 - - - - WSW 26 46 14 25 - - 0.0
29/07:00am 2.7 - - - - W 22 39 12 21 - - 0.0
29/06:30am 2.4 - - - - WSW 20 43 11 23 - - 0.0
29/06:00am 2.1 - - - - W 20 37 11 20 - - 0.0
29/05:30am 2.0 - - - - WSW 20 35 11 19 - - 0.0
29/05:00am 1.9 - - - - W 17 35 9 19 - - 0.0
29/04:30am 1.8 - - - - WSW 24 41 13 22 - - 0.0
29/04:00am 1.3 - - - - WSW 24 41 13 22 - - 0.0
29/03:30am 1.6 - - - - WSW 24 39 13 21 - - 0.0
29/03:17am 1.8 - - - - WSW 28 48 15 26 - - 0.0
29/03:00am 1.8 - - - - W 26 44 14 24 - - 0.0
29/02:31am 1.9 - - - - W 28 46 15 25 - - 0.0
29/02:30am 1.9 - - - - W 28 44 15 24 - - 0.0
29/02:00am 2.4 - - - - W 24 43 13 23 - - 0.0
29/01:30am 2.8 - - - - W 22 46 12 25 - - 0.0
29/01:00am 3.1 - - - - W 20 39 11 21 - - 0.0
29/12:30am 3.3 - - - - W 20 35 11 19 - - 0.0
29/12:00am 3.5 - - - - W 17 35 9 19 - - 0.0
 
Date/Time
EDT
Temp
°C
App
Temp
°C
Dew
Point
°C
Rel
Hum
%
Delta-T
°C
Wind Press
QNH
hPa
Press
MSL
hPa
Rain since
9am
mm
Dir  Spd
km/h
Gust
km/h
Spd
kts
Gust
kts
28/11:30pm 3.6 - - - - W 17 35 9 19 - - 0.0
28/11:00pm 3.5 - - - - W 24 43 13 23 - - 0.0
28/10:30pm 3.4 - - - - W 24 41 13 22 - - 0.0
28/10:00pm 3.6 - - - - WNW 20 33 11 18 - - 0.0
28/09:30pm 3.8 - - - - WNW 15 26 8 14 - - 0.0
28/09:00pm 4.2 - - - - WNW 20 33 11 18 - - 0.0
28/08:30pm 4.6 - - - - WNW 20 35 11 19 - - 0.0
28/08:00pm 5.3 - - - - WNW 17 30 9 16 - - 0.0
28/07:30pm 6.5 - - - - WNW 20 41 11 22 - - 0.0
28/07:00pm 8.0 - - - - WNW 19 32 10 17 - - 0.0
28/06:30pm 9.3 - - - - WNW 17 35 9 19 - - 0.0
28/06:00pm 10.2 - - - - WNW 15 35 8 19 - - 0.0
28/05:30pm 10.4 - - - - WNW 19 39 10 21 - - 0.0
28/05:00pm 11.1 - - - - WNW 17 32 9 17 - - 0.0
28/04:30pm 11.5 - - - - WNW 15 33 8 18 - - 0.0
28/04:00pm 12.1 - - - - WNW 17 33 9 18 - - 0.0
28/03:30pm 11.8 - - - - WNW 19 39 10 21 - - 0.0
28/03:00pm 12.5 - - - - WNW 19 39 10 21 - - 0.0
28/02:30pm 12.3 - - - - WNW 17 37 9 20 - - 0.0
28/02:00pm 11.7 - - - - WNW 15 35 8 19 - - 0.0
28/01:30pm 11.6 - - - - NW 17 33 9 18 - - 0.0
28/01:00pm 10.7 - - - - NW 15 33 8 18 - - 0.0
28/12:30pm 11.7 - - - - NW 17 33 9 18 - - 0.0
28/12:00pm 11.1 - - - - NW 15 32 8 17 - - 0.0
28/11:30am 10.4 - - - - NW 15 28 8 15 - - 0.0

Latest Capital City Observations: Canberra | Sydney | Melbourne | Brisbane | Adelaide | Perth | Hobart | Darwin

Other formats

Comma delimited format used in spreadsheet applications
http://www.bom.gov.au/fwo/IDN60903/IDN60903.95925.axf

JavaScript Object Notation format (JSON) in row-major order
http://www.bom.gov.au/fwo/IDN60903/IDN60903.95925.json

Data quality

Most of these data are generated automatically and are frequently updated. Quality checks on data are not normally performed. It is possible for incorrect values to appear. Refer to information at About Latest Weather Observations and please check the disclaimer before using these data.